Time;durP1;ratioP1;P1;durP2;ratioP2;P2;SDS_P1;SDS_P2;PMS_P1;PMS_P2;Temp;Humidity;BMP_temperature;BMP_pressure;BME280_temperature;BME280_humidity;BME280_pressure;Samples;Min_cycle;Max_cycle;Signal;HPM_P1;HPM_P2
2022/06/14 00:02:00;;;;;;;11.60;7.53;;;15.90;99.90;;;;;;5247074;28;20020;-77
2022/06/14 00:04:32;;;;;;;8.63;7.32;;;16.00;99.90;;;;;;5248225;28;20027;-75
2022/06/14 00:07:03;;;;;;;11.82;7.55;;;15.90;99.90;;;;;;5248260;28;20101;-75
2022/06/14 00:09:34;;;;;;;9.38;6.68;;;16.00;99.90;;;;;;5248145;28;20027;-75
2022/06/14 00:12:06;;;;;;;13.10;7.60;;;15.80;99.90;;;;;;5248137;28;20024;-75
2022/06/14 00:14:36;;;;;;;9.98;7.40;;;16.00;99.90;;;;;;5246939;28;20111;-75
2022/06/14 00:17:08;;;;;;;13.40;6.80;;;15.80;99.90;;;;;;5248130;28;20153;-75
2022/06/14 00:19:39;;;;;;;17.80;7.40;;;15.90;99.90;;;;;;5248183;28;20029;-75
2022/06/14 00:22:10;;;;;;;11.07;7.30;;;15.80;99.90;;;;;;5248184;28;20031;-75
2022/06/14 00:24:41;;;;;;;13.75;7.18;;;15.70;99.90;;;;;;5248186;28;20469;-76
2022/06/14 00:27:12;;;;;;;12.32;7.65;;;15.70;99.90;;;;;;5247879;28;20033;-76
2022/06/14 00:29:43;;;;;;;11.38;6.70;;;15.60;99.90;;;;;;5248064;28;20103;-75
2022/06/14 00:32:14;;;;;;;10.70;6.72;;;15.50;99.90;;;;;;5247951;28;20029;-75
2022/06/14 00:34:44;;;;;;;8.43;7.40;;;15.80;99.90;;;;;;5248043;28;20086;-76
2022/06/14 00:37:18;;;;;;;12.32;7.22;;;15.60;99.90;;;;;;5248005;28;20099;-75
2022/06/14 00:39:49;;;;;;;11.70;7.88;;;15.70;99.90;;;;;;5247790;28;20150;-75
2022/06/14 00:42:22;;;;;;;14.10;7.63;;;15.50;99.90;;;;;;5247721;28;20107;-79
2022/06/14 00:45:27;;;;;;;8.40;7.45;;;15.50;99.90;;;;;;5247792;28;20104;-75
2022/06/14 00:48:09;;;;;;;10.75;7.75;;;15.60;99.90;;;;;;5246186;28;20136;-75
2022/06/14 00:51:16;;;;;;;14.15;7.40;;;15.40;99.90;;;;;;5246558;28;20021;-75
2022/06/14 00:54:01;;;;;;;10.52;7.53;;;15.30;99.90;;;;;;5247705;28;20028;-76
2022/06/14 00:56:46;;;;;;;12.55;7.93;;;15.50;99.90;;;;;;5246420;28;20025;-76
2022/06/14 00:59:24;;;;;;;8.57;6.97;;;15.50;99.90;;;;;;5245425;28;20056;-76
2022/06/14 01:02:08;;;;;;;16.40;7.78;;;15.60;99.90;;;;;;5247839;28;20033;-75
2022/06/14 01:04:40;;;;;;;8.00;7.07;;;15.40;99.90;;;;;;5246400;28;20025;-76
2022/06/14 01:07:21;;;;;;;10.27;6.90;;;15.50;99.90;;;;;;5247614;28;20499;-76
2022/06/14 01:10:01;;;;;;;8.50;6.95;;;15.50;99.90;;;;;;5251351;28;20116;-75
2022/06/14 01:12:36;;;;;;;9.75;7.18;;;15.50;99.90;;;;;;5251341;28;20031;-76
2022/06/14 01:15:17;;;;;;;11.43;7.65;;;15.60;99.90;;;;;;5251357;28;20086;-75
2022/06/14 01:17:52;;;;;;;10.82;7.30;;;15.30;99.90;;;;;;5250065;28;20025;-76
2022/06/14 01:20:22;;;;;;;10.02;7.75;;;15.40;99.90;;;;;;5250973;28;20090;-75
2022/06/14 01:22:54;;;;;;;10.18;7.28;;;15.40;99.90;;;;;;5251230;28;20017;-76
2022/06/14 01:25:30;;;;;;;11.85;7.63;;;15.50;99.90;;;;;;5249802;28;20029;-75
2022/06/14 01:28:03;;;;;;;13.38;6.55;;;15.40;99.90;;;;;;5250853;28;20028;-76
2022/06/14 01:30:42;;;;;;;8.52;7.72;;;15.30;99.90;;;;;;5249840;28;20033;-80
2022/06/14 01:33:20;;;;;;;10.70;7.72;;;15.50;99.90;;;;;;5250818;28;20009;-75
2022/06/14 01:36:00;;;;;;;8.35;7.32;;;15.50;99.90;;;;;;5250855;28;20447;-75
2022/06/14 01:38:31;;;;;;;10.38;7.65;;;15.60;99.90;;;;;;5249826;28;20464;-75
2022/06/14 01:41:38;;;;;;;8.50;7.70;;;15.40;99.90;;;;;;5250971;28;20031;-75
2022/06/14 01:44:29;;;;;;;10.85;7.80;;;15.60;99.90;;;;;;5250946;28;20107;-76
2022/06/14 01:47:57;;;;;;;12.00;8.25;;;15.50;99.90;;;;;;5250050;28;20116;-76
2022/06/14 01:53:48;;;;;;;8.32;7.53;;;15.50;99.90;;;;;;5250992;28;20074;-75
2022/06/14 01:56:24;;;;;;;12.15;7.00;;;15.50;99.90;;;;;;5249249;28;20036;-76
2022/06/14 01:59:12;;;;;;;17.70;7.28;;;15.50;99.90;;;;;;5250194;28;20054;-75
2022/06/14 02:02:04;;;;;;;9.98;7.30;;;15.10;99.90;;;;;;5250359;28;20112;-75
2022/06/14 02:04:45;;;;;;;12.88;7.22;;;15.20;99.90;;;;;;5250219;28;20043;-81
2022/06/14 02:07:24;;;;;;;10.60;7.03;;;15.40;99.90;;;;;;5250420;28;20040;-75
2022/06/14 02:10:12;;;;;;;10.23;7.63;;;15.10;99.90;;;;;;5250313;28;20012;-76
2022/06/14 02:12:58;;;;;;;10.20;7.43;;;15.20;99.90;;;;;;5249034;28;20413;-74
2022/06/14 02:15:57;;;;;;;10.35;7.65;;;15.20;99.90;;;;;;5250031;28;20028;-82
2022/06/14 02:18:48;;;;;;;8.88;7.20;;;15.20;99.90;;;;;;5241936;28;20044;-75
2022/06/14 02:21:41;;;;;;;15.50;7.75;;;15.10;99.90;;;;;;5249967;28;20488;-75
2022/06/14 02:24:28;;;;;;;8.90;7.82;;;15.00;99.90;;;;;;5249854;28;20095;-76
2022/06/14 02:27:12;;;;;;;14.75;7.35;;;15.10;99.90;;;;;;5248473;28;20086;-76
2022/06/14 02:29:53;;;;;;;8.98;6.72;;;15.10;99.90;;;;;;5248697;28;20423;-75
2022/06/14 02:32:54;;;;;;;12.35;7.03;;;15.10;99.90;;;;;;5248584;28;20409;-76
2022/06/14 02:35:32;;;;;;;10.82;7.63;;;15.20;99.90;;;;;;5248587;28;20036;-75
2022/06/14 02:38:35;;;;;;;14.40;7.45;;;15.10;99.90;;;;;;5249815;28;20024;-77
2022/06/14 02:41:21;;;;;;;8.57;6.93;;;15.00;99.90;;;;;;5249686;28;20115;-81
2022/06/14 02:44:13;;;;;;;10.15;7.75;;;15.00;99.90;;;;;;5249509;28;20016;-76
2022/06/14 02:46:58;;;;;;;9.32;7.53;;;14.90;99.90;;;;;;5249401;28;20032;-75
2022/06/14 02:49:38;;;;;;;8.65;7.15;;;14.90;99.90;;;;;;5249750;28;20452;-75
2022/06/14 02:52:35;;;;;;;9.60;7.75;;;15.00;99.90;;;;;;5249478;28;20024;-76
2022/06/14 02:55:21;;;;;;;10.80;7.88;;;15.00;99.90;;;;;;5249374;28;20550;-77
2022/06/14 02:58:18;;;;;;;7.95;7.20;;;15.00;99.90;;;;;;5247788;28;20035;-75
2022/06/14 03:00:50;;;;;;;11.68;8.85;;;15.10;99.90;;;;;;5249406;28;20051;-75
2022/06/14 03:03:24;;;;;;;9.32;7.53;;;14.90;99.90;;;;;;5247862;28;20495;-75
2022/06/14 03:06:04;;;;;;;11.07;7.88;;;15.10;99.90;;;;;;5247612;28;20036;-75
2022/06/14 03:08:45;;;;;;;9.88;7.00;;;15.10;99.90;;;;;;5248955;28;20028;-76
2022/06/14 03:11:25;;;;;;;10.90;7.40;;;15.00;99.90;;;;;;5249121;28;20036;-75
2022/06/14 03:14:20;;;;;;;9.07;7.15;;;15.00;99.90;;;;;;5247733;28;20465;-75
2022/06/14 03:17:26;;;;;;;10.70;7.38;;;15.20;99.90;;;;;;5248738;28;20120;-75
2022/06/14 03:20:22;;;;;;;9.30;7.45;;;15.30;99.90;;;;;;5248736;28;20032;-75
2022/06/14 03:23:11;;;;;;;8.48;7.38;;;15.20;99.90;;;;;;5248984;28;20120;-75
2022/06/14 03:25:45;;;;;;;9.73;7.70;;;15.40;99.90;;;;;;5248728;28;20024;-75
2022/06/14 03:28:25;;;;;;;9.68;6.68;;;15.40;99.90;;;;;;5247315;28;20035;-76
2022/06/14 03:30:58;;;;;;;10.23;7.70;;;15.60;99.90;;;;;;5248202;28;20035;-75
2022/06/14 03:33:43;;;;;;;15.45;7.35;;;15.70;99.90;;;;;;5247328;28;20360;-75
2022/06/14 03:36:14;;;;;;;11.50;6.85;;;15.70;99.90;;;;;;5248648;28;20031;-75
2022/06/14 03:38:53;;;;;;;7.97;6.07;;;15.70;99.90;;;;;;5248639;28;20044;-76
2022/06/14 03:41:27;;;;;;;7.47;6.65;;;15.80;99.90;;;;;;5248657;28;20024;-75
2022/06/14 03:44:01;;;;;;;8.00;6.25;;;15.80;99.90;;;;;;5248406;28;20020;-76
2022/06/14 03:46:37;;;;;;;9.50;6.40;;;15.90;99.90;;;;;;5248305;28;20026;-75
2022/06/14 03:49:13;;;;;;;7.45;6.70;;;15.90;99.90;;;;;;5248821;28;20357;-76
2022/06/14 03:51:57;;;;;;;8.25;6.15;;;16.00;99.90;;;;;;5248411;28;20039;-76
2022/06/14 03:54:46;;;;;;;10.10;6.43;;;16.20;99.90;;;;;;5248305;28;20074;-76
2022/06/14 03:57:53;;;;;;;7.20;6.38;;;16.40;99.90;;;;;;5247928;28;20033;-75
2022/06/14 04:00:31;;;;;;;6.65;5.75;;;16.30;99.90;;;;;;5246877;28;20071;-76
2022/06/14 04:03:26;;;;;;;9.05;6.25;;;16.50;99.90;;;;;;5247154;28;20068;-82
2022/06/14 04:06:18;;;;;;;8.55;6.40;;;16.50;99.90;;;;;;5247013;28;20033;-75
2022/06/14 04:08:52;;;;;;;9.25;6.28;;;16.60;99.90;;;;;;5248159;28;20031;-76
2022/06/14 04:11:48;;;;;;;8.00;6.13;;;16.70;99.90;;;;;;5248157;28;20048;-76
2022/06/14 04:14:38;;;;;;;7.53;6.35;;;16.90;99.90;;;;;;5248302;28;20028;-75
2022/06/14 04:17:12;;;;;;;;;;;16.90;99.90;;;;;;5247191;28;20432;-81
2022/06/14 04:19:58;;;;;;;7.38;5.60;;;17.00;99.90;;;;;;5246832;28;20390;-76
2022/06/14 04:22:54;;;;;;;6.18;5.57;;;17.10;99.90;;;;;;5248110;28;20059;-76
2022/06/14 04:25:25;;;;;;;7.35;5.45;;;17.20;99.90;;;;;;5248080;28;20025;-76
2022/06/14 04:28:28;;;;;;;7.25;5.70;;;17.50;99.90;;;;;;5247936;28;20021;-75
2022/06/14 04:31:16;;;;;;;10.43;5.43;;;17.40;99.90;;;;;;5247955;28;20021;-75
2022/06/14 04:33:58;;;;;;;6.50;5.32;;;17.80;99.90;;;;;;5246699;28;20027;-75
2022/06/14 04:36:41;;;;;;;8.15;5.43;;;17.70;99.90;;;;;;5246826;28;20036;-75
2022/06/14 04:39:19;;;;;;;6.20;5.38;;;17.80;99.90;;;;;;5246742;28;20384;-76
2022/06/14 04:42:03;;;;;;;8.80;5.20;;;18.00;99.90;;;;;;5248396;28;20033;-80
2022/06/14 04:44:44;;;;;;;8.90;5.78;;;18.10;99.90;;;;;;5250483;28;20035;-82
2022/06/14 04:47:32;;;;;;;8.10;4.88;;;18.40;99.90;;;;;;5250620;28;20020;-75
2022/06/14 04:50:24;;;;;;;7.60;5.55;;;18.80;99.90;;;;;;5251886;28;20423;-76
2022/06/14 04:53:23;;;;;;;11.18;4.88;;;18.80;99.90;;;;;;5250312;28;20453;-75
2022/06/14 04:56:02;;;;;;;5.97;4.82;;;18.80;99.90;;;;;;5251420;28;20032;-75
2022/06/14 04:58:42;;;;;;;10.65;5.85;;;19.10;99.90;;;;;;5251185;28;20056;-82
2022/06/14 05:01:19;;;;;;;5.70;4.97;;;19.10;99.90;;;;;;5251463;28;20036;-76
2022/06/14 05:04:01;;;;;;;7.10;5.40;;;19.30;99.90;;;;;;5251563;28;20024;-75
2022/06/14 05:06:42;;;;;;;9.45;5.68;;;19.60;99.90;;;;;;5251466;28;20025;-77
2022/06/14 05:09:22;;;;;;;5.82;5.15;;;19.80;99.90;;;;;;5251348;28;20024;-75
2022/06/14 05:11:57;;;;;;;5.18;4.60;;;19.90;99.90;;;;;;5251771;28;20024;-76
2022/06/14 05:14:51;;;;;;;7.38;5.10;;;19.90;99.90;;;;;;5251199;28;20380;-76
2022/06/14 05:17:57;;;;;;;6.05;4.75;;;20.20;99.90;;;;;;5231521;28;20047;-75
2022/06/14 05:20:48;;;;;;;6.60;5.40;;;20.50;99.90;;;;;;5228411;28;20044;-76
2022/06/14 05:23:36;;;;;;;8.20;5.45;;;20.80;99.90;;;;;;5251047;28;20017;-82
2022/06/14 05:26:26;;;;;;;6.22;5.40;;;21.00;99.90;;;;;;5251023;28;20060;-83
2022/06/14 05:29:29;;;;;;;7.35;5.70;;;21.50;99.90;;;;;;5249803;28;20048;-76
2022/06/14 05:32:05;;;;;;;7.07;5.40;;;21.50;99.90;;;;;;5250689;28;20025;-82
2022/06/14 05:35:00;;;;;;;7.50;5.88;;;22.10;99.90;;;;;;5250851;28;20036;-76
2022/06/14 05:38:25;;;;;;;7.57;5.68;;;22.10;99.90;;;;;;5249661;28;20412;-83
2022/06/14 05:41:04;;;;;;;7.93;5.80;;;22.80;99.90;;;;;;5214237;28;20539;-81
2022/06/14 05:44:03;;;;;;;8.57;5.90;;;23.30;99.90;;;;;;5248583;28;20119;-76
2022/06/14 05:46:50;;;;;;;9.07;5.32;;;23.50;99.90;;;;;;5238617;28;20036;-77
2022/06/14 05:49:29;;;;;;;9.10;5.40;;;23.50;99.90;;;;;;5249464;28;20089;-81
2022/06/14 05:52:09;;;;;;;8.98;5.90;;;23.80;99.90;;;;;;5231373;28;20028;-80
2022/06/14 05:55:00;;;;;;;;;;;23.60;99.90;;;;;;5249036;28;20391;-80
2022/06/14 05:57:56;;;;;;;13.45;5.78;;;23.70;99.90;;;;;;5249751;28;19912;-75
2022/06/14 06:00:35;;;;;;;9.35;4.88;;;23.90;99.90;;;;;;5250350;28;20420;-75
2022/06/14 06:03:26;;;;;;;7.53;5.57;;;23.90;99.90;;;;;;5250461;28;20034;-75
2022/06/14 06:06:13;;;;;;;9.68;5.05;;;24.00;99.90;;;;;;5250150;28;20438;-76
2022/06/14 06:08:54;;;;;;;9.27;5.25;;;24.00;99.90;;;;;;5250439;28;20447;-75
2022/06/14 06:11:54;;;;;;;8.85;5.22;;;24.20;99.90;;;;;;5250285;28;20032;-75
2022/06/14 06:14:41;;;;;;;8.00;5.75;;;24.40;99.90;;;;;;5250303;28;20020;-75
2022/06/14 06:17:27;;;;;;;7.88;4.93;;;24.20;99.90;;;;;;5248841;28;20029;-75
2022/06/14 06:20:22;;;;;;;7.40;4.65;;;24.40;99.90;;;;;;5248445;28;20475;-76
2022/06/14 06:23:15;;;;;;;9.18;5.30;;;24.50;99.90;;;;;;5248713;28;20028;-75
2022/06/14 06:25:50;;;;;;;9.05;5.15;;;24.50;99.90;;;;;;5248665;28;20064;-75
2022/06/14 06:28:23;;;;;;;10.45;5.32;;;24.40;99.90;;;;;;5249531;28;20096;-75
2022/06/14 06:31:06;;;;;;;9.73;5.40;;;24.50;99.90;;;;;;5249862;28;20120;-76
2022/06/14 06:33:40;;;;;;;7.68;5.30;;;24.40;99.90;;;;;;5249676;28;20031;-80
2022/06/14 06:36:26;;;;;;;5.93;5.07;;;24.60;99.90;;;;;;5248427;28;20392;-75
2022/06/14 06:39:18;;;;;;;6.95;5.18;;;24.60;99.90;;;;;;5249570;28;20028;-75
2022/06/14 06:41:54;;;;;;;5.75;5.15;;;24.70;99.90;;;;;;5249645;28;20115;-76
2022/06/14 06:44:50;;;;;;;7.32;4.63;;;25.00;99.90;;;;;;5249267;28;20028;-76
2022/06/14 06:47:32;;;;;;;8.55;5.15;;;24.80;99.90;;;;;;5247990;28;20024;-76
2022/06/14 06:50:24;;;;;;;7.00;5.20;;;25.00;99.90;;;;;;5249143;28;20036;-75
2022/06/14 06:53:16;;;;;;;7.47;4.63;;;25.30;99.90;;;;;;5248055;28;20095;-75
2022/06/14 06:56:04;;;;;;;12.32;5.35;;;25.50;99.90;;;;;;5248084;28;20024;-75
2022/06/14 06:58:41;;;;;;;5.97;4.97;;;25.40;99.90;;;;;;5248926;28;20049;-76
2022/06/14 07:01:21;;;;;;;10.75;4.78;;;25.30;99.90;;;;;;5249313;28;20028;-75
2022/06/14 07:04:18;;;;;;;7.18;4.90;;;25.30;99.90;;;;;;5248990;28;20029;-75
2022/06/14 07:06:54;;;;;;;6.50;5.30;;;25.50;99.90;;;;;;5248031;28;20602;-75
2022/06/14 07:09:43;;;;;;;8.27;5.00;;;25.50;99.90;;;;;;5247771;28;20048;-75
2022/06/14 07:12:19;;;;;;;10.60;5.10;;;25.50;99.90;;;;;;5247694;28;20031;-75
2022/06/14 07:14:58;;;;;;;5.97;4.80;;;25.60;99.90;;;;;;5248443;28;20508;-75
2022/06/14 07:18:01;;;;;;;7.63;4.72;;;25.60;99.90;;;;;;5248861;28;20033;-76
2022/06/14 07:20:31;;;;;;;6.07;5.28;;;25.60;99.90;;;;;;5248046;28;20430;-75
2022/06/14 07:23:30;;;;;;;11.02;5.00;;;25.60;99.90;;;;;;5248746;28;20027;-76
2022/06/14 07:26:18;;;;;;;10.75;5.40;;;25.80;99.90;;;;;;5248643;28;20349;-75
2022/06/14 07:29:20;;;;;;;10.25;5.15;;;25.90;99.90;;;;;;5247264;28;20032;-74
2022/06/14 07:32:12;;;;;;;6.60;4.53;;;25.90;99.90;;;;;;5247417;28;20035;-75
2022/06/14 07:34:44;;;;;;;6.25;4.55;;;26.00;99.90;;;;;;5247275;28;20073;-75
2022/06/14 07:37:15;;;;;;;8.82;5.05;;;26.10;99.90;;;;;;5248499;28;20035;-77
2022/06/14 07:40:00;;;;;;;5.43;4.68;;;26.30;99.90;;;;;;5248311;28;20032;-75
2022/06/14 07:42:57;;;;;;;9.00;6.18;;;26.10;99.90;;;;;;5248405;28;20078;-75
2022/06/14 07:45:34;;;;;;;7.25;4.30;;;26.10;99.90;;;;;;5248312;28;20025;-75
2022/06/14 07:48:08;;;;;;;5.57;4.70;;;26.20;99.90;;;;;;5248356;28;20047;-75
2022/06/14 07:50:50;;;;;;;9.27;4.63;;;26.20;99.90;;;;;;5248240;28;20476;-75
2022/06/14 07:53:27;;;;;;;5.90;3.88;;;26.20;99.90;;;;;;5247119;28;20056;-75
2022/06/14 07:56:20;;;;;;;8.23;4.18;;;26.00;99.90;;;;;;5248343;28;20033;-74
2022/06/14 07:58:58;;;;;;;6.38;4.20;;;26.10;99.90;;;;;;5244216;28;20492;-74
2022/06/14 08:01:51;;;;;;;6.43;4.10;;;26.50;99.90;;;;;;5244757;28;20047;-75
2022/06/14 08:04:37;;;;;;;6.13;3.67;;;26.40;99.90;;;;;;5246819;28;20490;-75
2022/06/14 08:07:13;;;;;;;6.88;4.57;;;26.30;99.90;;;;;;5246845;28;20368;-75
2022/06/14 08:10:00;;;;;;;5.50;4.20;;;26.30;99.90;;;;;;5247009;28;20123;-75
2022/06/14 08:12:39;;;;;;;5.28;4.22;;;26.70;99.90;;;;;;5248053;28;20032;-75
2022/06/14 08:15:20;;;;;;;6.43;4.05;;;26.90;99.90;;;;;;5248035;28;20025;-75
2022/06/14 08:18:01;;;;;;;7.00;4.05;;;26.80;99.90;;;;;;5250546;28;20486;-75
2022/06/14 08:20:50;;;;;;;5.40;3.75;;;26.70;99.90;;;;;;5252268;28;20050;-75
2022/06/14 08:23:31;;;;;;;6.43;3.85;;;26.60;99.90;;;;;;5251443;28;20028;-77
2022/06/14 08:26:19;;;;;;;8.35;4.07;;;26.70;99.90;;;;;;5230116;28;20036;-79
2022/06/14 08:29:08;;;;;;;7.22;3.92;;;26.90;99.90;;;;;;5231256;28;20029;-75
2022/06/14 08:31:48;;;;;;;5.35;3.40;;;26.70;99.90;;;;;;5231369;28;20029;-80
2022/06/14 08:34:33;;;;;;;9.35;4.50;;;26.70;99.90;;;;;;5230123;28;20472;-76
2022/06/14 08:37:47;;;;;;;7.47;3.95;;;26.90;99.90;;;;;;5231406;28;20108;-77
2022/06/14 08:41:02;;;;;;;5.68;3.88;;;26.90;99.90;;;;;;5230643;28;20099;-80
2022/06/14 08:43:40;;;;;;;5.68;3.70;;;27.00;99.90;;;;;;5230935;28;20021;-76
2022/06/14 08:46:19;;;;;;;8.15;3.92;;;26.70;99.90;;;;;;5229769;28;20056;-75
2022/06/14 08:49:31;;;;;;;4.68;3.70;;;27.00;99.90;;;;;;5230647;28;20089;-77
2022/06/14 08:52:20;;;;;;;8.57;3.78;;;26.90;99.90;;;;;;5229795;28;20029;-79
2022/06/14 08:55:17;;;;;;;6.18;3.85;;;27.10;99.90;;;;;;5230730;28;20028;-75
2022/06/14 08:58:22;;;;;;;7.45;3.95;;;27.10;99.90;;;;;;5230535;28;20550;-79
2022/06/14 09:01:11;;;;;;;5.40;3.60;;;26.90;99.90;;;;;;5230901;28;20037;-78
2022/06/14 09:04:18;;;;;;;4.53;3.80;;;27.10;99.90;;;;;;5230589;28;20021;-79
2022/06/14 09:07:12;;;;;;;5.95;4.00;;;27.00;99.90;;;;;;5230620;28;20492;-78
2022/06/14 09:10:21;;;;;;;3.90;3.30;;;27.10;99.90;;;;;;5230390;28;20029;-75
2022/06/14 09:13:24;;;;;;;6.18;3.80;;;27.20;99.90;;;;;;5229642;28;20090;-77
2022/06/14 09:16:10;;;;;;;5.78;3.13;;;27.50;99.90;;;;;;5229048;28;20033;-79
2022/06/14 09:18:54;;;;;;;5.07;3.50;;;27.10;99.90;;;;;;5228985;28;20558;-76
2022/06/14 09:21:48;;;;;;;5.32;3.17;;;27.40;99.90;;;;;;5229331;28;20112;-79
2022/06/14 09:24:39;;;;;;;5.88;3.80;;;27.70;99.90;;;;;;5229211;28;20041;-80
2022/06/14 09:27:31;;;;;;;6.32;3.25;;;27.80;99.90;;;;;;5228831;28;20385;-80
2022/06/14 09:30:19;;;;;;;6.20;3.50;;;27.70;99.90;;;;;;5229155;28;20025;-75
2022/06/14 09:33:12;;;;;;;7.10;3.65;;;27.70;99.90;;;;;;5230362;28;20090;-75
2022/06/14 09:35:58;;;;;;;6.25;3.05;;;27.80;99.90;;;;;;5228748;28;20029;-76
2022/06/14 09:38:50;;;;;;;6.20;3.10;;;27.90;99.90;;;;;;5229921;28;20442;-75
2022/06/14 09:42:03;;;;;;;5.15;3.17;;;27.70;99.90;;;;;;5228791;28;20041;-75
2022/06/14 09:45:13;;;;;;;12.68;3.40;;;27.80;99.90;;;;;;5239737;28;20496;-75
2022/06/14 09:47:52;;;;;;;5.78;3.10;;;27.70;99.90;;;;;;5229964;28;20104;-75
2022/06/14 09:50:42;;;;;;;4.93;3.75;;;28.00;99.90;;;;;;5228566;28;20116;-75
2022/06/14 09:53:31;;;;;;;;;;;27.90;99.90;;;;;;5230332;28;20042;-75
2022/06/14 09:56:05;;;;;;;9.65;3.75;;;28.00;99.90;;;;;;5229941;28;19912;-75
2022/06/14 09:58:50;;;;;;;4.70;3.15;;;28.00;99.90;;;;;;5229452;28;20049;-75
2022/06/14 10:01:47;;;;;;;4.63;3.60;;;27.90;99.90;;;;;;5229851;28;20040;-75
2022/06/14 10:04:38;;;;;;;4.50;3.40;;;28.20;99.90;;;;;;5229706;28;20017;-75
2022/06/14 10:07:15;;;;;;;4.82;3.30;;;28.10;99.90;;;;;;5229601;28;20342;-80
2022/06/14 10:10:04;;;;;;;6.07;3.35;;;28.20;99.90;;;;;;5228394;28;20029;-75
2022/06/14 10:12:41;;;;;;;7.45;3.45;;;27.90;99.90;;;;;;5229360;28;20033;-75
2022/06/14 10:15:51;;;;;;;6.03;3.28;;;28.20;99.90;;;;;;5229381;28;20389;-75
2022/06/14 10:18:32;;;;;;;9.88;3.05;;;28.20;99.90;;;;;;5229378;28;20032;-79
2022/06/14 10:21:07;;;;;;;9.23;3.88;;;28.30;99.90;;;;;;5229341;28;20532;-75
2022/06/14 10:23:46;;;;;;;8.18;3.42;;;28.30;99.90;;;;;;5234038;28;20024;-73
2022/06/14 10:29:46;;;;;;;5.95;3.25;;;28.40;99.90;;;;;;5229159;28;20029;-74
2022/06/14 10:32:43;;;;;;;5.43;3.08;;;28.30;99.90;;;;;;5229080;28;20036;-74
2022/06/14 10:35:37;;;;;;;6.90;3.38;;;28.10;99.90;;;;;;5212920;28;20033;-79
2022/06/14 10:38:37;;;;;;;7.78;3.10;;;28.20;99.90;;;;;;5228965;28;20112;-75
2022/06/14 10:41:26;;;;;;;3.97;2.78;;;28.30;99.90;;;;;;5227376;28;20029;-75
2022/06/14 10:44:19;;;;;;;5.95;2.95;;;28.20;99.90;;;;;;5228807;28;20025;-73
2022/06/14 10:47:05;;;;;;;6.85;2.67;;;28.10;99.90;;;;;;5227329;28;20029;-78
2022/06/14 10:49:51;;;;;;;4.32;2.67;;;28.10;99.90;;;;;;5228146;28;20116;-75
2022/06/14 10:52:37;;;;;;;3.67;2.45;;;28.40;99.90;;;;;;5227207;28;20029;-75
2022/06/14 10:55:08;;;;;;;5.93;2.90;;;28.60;99.90;;;;;;5228458;28;20464;-75
2022/06/14 10:57:57;;;;;;;9.82;3.00;;;28.40;99.90;;;;;;5228276;28;20160;-78
2022/06/14 11:00:39;;;;;;;8.38;2.95;;;28.40;99.90;;;;;;5228216;28;20051;-76
2022/06/14 11:03:31;;;;;;;13.43;3.15;;;28.60;99.90;;;;;;5228307;28;20033;-77
2022/06/14 11:06:06;;;;;;;4.28;2.90;;;28.80;99.90;;;;;;5227190;28;20465;-74
2022/06/14 11:08:57;;;;;;;5.72;2.63;;;28.60;99.90;;;;;;5228443;28;20465;-74
2022/06/14 11:11:42;;;;;;;6.57;2.78;;;28.40;99.90;;;;;;5228114;28;20037;-74
2022/06/14 11:14:19;;;;;;;7.05;3.08;;;28.90;99.90;;;;;;5227164;28;20032;-73
2022/06/14 11:17:02;;;;;;;3.65;2.28;;;28.60;99.90;;;;;;5228219;28;20021;-74
2022/06/14 11:20:16;;;;;;;5.40;2.50;;;28.30;99.90;;;;;;5228089;28;20041;-74
2022/06/14 11:23:24;;;;;;;7.07;2.63;;;28.30;99.90;;;;;;5226915;28;20469;-74
2022/06/14 11:26:06;;;;;;;6.07;2.58;;;28.30;99.90;;;;;;5228043;28;20060;-74
2022/06/14 11:29:01;;;;;;;5.65;3.30;;;29.10;99.90;;;;;;5227687;28;20033;-74
2022/06/14 11:31:46;;;;;;;7.18;3.63;;;28.80;99.90;;;;;;5227963;28;20436;-73
2022/06/14 11:34:26;;;;;;;10.32;4.60;;;29.20;99.90;;;;;;5227841;28;20035;-74
2022/06/14 11:37:39;;;;;;;4.63;3.88;;;28.80;99.90;;;;;;5227869;28;20043;-74
2022/06/14 11:40:32;;;;;;;5.03;3.60;;;28.90;99.90;;;;;;5227815;28;20037;-74
2022/06/14 11:43:09;;;;;;;9.07;4.13;;;28.50;99.90;;;;;;5227654;28;20055;-76
2022/06/14 11:46:01;;;;;;;6.60;3.97;;;28.50;99.90;;;;;;5227614;28;20476;-75
2022/06/14 11:48:47;;;;;;;7.32;4.28;;;28.40;99.90;;;;;;5226261;28;20052;-74
2022/06/14 11:51:43;;;;;;;5.88;3.80;;;28.50;99.90;;;;;;5227288;28;20033;-74
2022/06/14 11:54:36;;;;;;;8.55;4.18;;;28.20;99.90;;;;;;5227854;28;20035;-74
2022/06/14 11:57:19;;;;;;;7.07;5.55;;;28.60;99.90;;;;;;5227285;28;20032;-74
2022/06/14 12:00:12;;;;;;;9.20;4.30;;;28.40;99.90;;;;;;5226140;28;20124;-74
2022/06/14 12:03:09;;;;;;;8.65;7.05;;;28.60;99.90;;;;;;5227482;28;20025;-74
2022/06/14 12:05:45;;;;;;;6.82;4.20;;;28.60;99.90;;;;;;5227577;28;20021;-74
2022/06/14 12:08:31;;;;;;;7.03;4.28;;;28.50;99.90;;;;;;5227312;28;20123;-74
2022/06/14 12:11:25;;;;;;;7.25;4.10;;;28.40;99.90;;;;;;5227209;28;20033;-75
2022/06/14 12:14:26;;;;;;;7.20;4.35;;;28.90;99.90;;;;;;5227578;28;20334;-74
2022/06/14 12:17:19;;;;;;;6.28;4.07;;;28.90;99.90;;;;;;5225891;28;20120;-74
2022/06/14 12:20:15;;;;;;;5.13;4.18;;;28.70;99.90;;;;;;5227342;28;20074;-74
2022/06/14 12:23:00;;;;;;;7.25;4.47;;;28.80;99.90;;;;;;5222545;28;20037;-74
2022/06/14 12:28:25;;;;;;;10.38;4.72;;;28.70;99.90;;;;;;5227404;28;20393;-74
2022/06/14 12:31:25;;;;;;;4.38;3.78;;;28.30;99.90;;;;;;5227454;28;20029;-77
2022/06/14 12:34:30;;;;;;;9.85;4.25;;;28.40;99.90;;;;;;5227015;28;20087;-74
2022/06/14 12:37:36;;;;;;;10.50;4.75;;;28.10;99.90;;;;;;5226580;28;20434;-74
2022/06/14 12:40:26;;;;;;;10.68;4.57;;;28.40;99.90;;;;;;5204089;28;20045;-74
2022/06/14 12:43:20;;;;;;;8.00;4.53;;;28.30;99.90;;;;;;5227462;28;20021;-74
2022/06/14 12:46:01;;;;;;;7.10;4.38;;;28.70;99.90;;;;;;5227167;28;20025;-74
2022/06/14 12:48:45;;;;;;;7.43;4.68;;;28.80;99.90;;;;;;5227175;28;20385;-74
2022/06/14 12:51:34;;;;;;;7.93;4.55;;;28.60;99.90;;;;;;5226992;28;20029;-74
2022/06/14 12:54:21;;;;;;;11.45;4.53;;;28.60;99.90;;;;;;5226985;28;20078;-75
2022/06/14 12:57:00;;;;;;;9.02;4.30;;;28.60;99.90;;;;;;5225646;28;20477;-74
2022/06/14 12:59:55;;;;;;;8.68;4.57;;;28.20;99.90;;;;;;5226687;28;20053;-75
2022/06/14 13:02:36;;;;;;;6.50;4.80;;;28.70;99.90;;;;;;5227014;28;20104;-74
2022/06/14 13:05:12;;;;;;;7.05;4.25;;;28.90;99.90;;;;;;5230912;28;20492;-74
2022/06/14 13:07:52;;;;;;;4.95;4.22;;;28.90;99.90;;;;;;5230728;28;20020;-75
2022/06/14 13:10:28;;;;;;;;;;;28.60;99.90;;;;;;5229846;28;20036;-74
2022/06/14 13:13:24;;;;;;;6.15;4.53;;;28.50;99.90;;;;;;5229435;28;19909;-74
2022/06/14 13:15:58;;;;;;;8.88;4.93;;;28.40;99.90;;;;;;5226010;28;20033;-74
2022/06/14 13:19:05;;;;;;;9.65;4.95;;;28.40;99.90;;;;;;5230612;28;20025;-75
2022/06/14 13:21:54;;;;;;;6.75;4.43;;;28.70;99.90;;;;;;5230547;28;20115;-74
2022/06/14 13:24:51;;;;;;;12.18;4.80;;;28.70;99.90;;;;;;5230638;28;20029;-74
2022/06/14 13:27:35;;;;;;;4.70;3.85;;;28.60;99.90;;;;;;5230326;28;20056;-74
2022/06/14 13:30:24;;;;;;;7.10;4.32;;;28.50;99.90;;;;;;5230492;28;20362;-74
2022/06/14 13:33:04;;;;;;;8.25;4.60;;;28.70;99.90;;;;;;5229401;28;20029;-75
2022/06/14 13:35:47;;;;;;;7.82;4.60;;;28.30;99.90;;;;;;5229139;28;20036;-75
2022/06/14 13:38:36;;;;;;;5.28;4.10;;;28.70;99.90;;;;;;5229084;28;20083;-74
2022/06/14 13:41:16;;;;;;;7.85;4.13;;;28.30;99.90;;;;;;5230003;28;20037;-74
2022/06/14 13:44:07;;;;;;;6.13;4.72;;;28.70;99.90;;;;;;5230262;28;20036;-74
2022/06/14 13:46:51;;;;;;;5.47;4.50;;;28.60;99.90;;;;;;5230170;28;20053;-75
2022/06/14 13:49:38;;;;;;;7.45;4.43;;;28.20;99.90;;;;;;5229086;28;20033;-74
2022/06/14 13:52:21;;;;;;;6.53;4.45;;;28.60;99.90;;;;;;5229781;28;20025;-74
2022/06/14 13:55:36;;;;;;;7.03;4.28;;;28.30;99.90;;;;;;5230030;28;20029;-74
2022/06/14 13:58:26;;;;;;;7.45;4.80;;;28.60;99.90;;;;;;5227777;28;20820;-78
2022/06/14 14:01:03;;;;;;;10.35;4.65;;;28.60;99.90;;;;;;5229682;28;20045;-74
2022/06/14 14:03:53;;;;;;;7.38;4.75;;;28.30;99.90;;;;;;5228547;28;20048;-74
2022/06/14 14:06:42;;;;;;;7.03;4.53;;;28.40;99.90;;;;;;5228587;28;20032;-75
2022/06/14 14:09:24;;;;;;;9.98;4.90;;;28.30;99.90;;;;;;5228378;28;20025;-74
2022/06/14 14:12:16;;;;;;;5.53;4.57;;;28.30;99.90;;;;;;5228814;28;20529;-74
2022/06/14 14:15:23;;;;;;;8.07;4.65;;;28.40;99.90;;;;;;5227505;28;20048;-74
2022/06/14 14:18:09;;;;;;;8.00;4.70;;;28.20;99.90;;;;;;5229467;28;20060;-74
2022/06/14 14:21:03;;;;;;;6.90;4.80;;;28.80;99.90;;;;;;5229528;28;20068;-74
2022/06/14 14:23:52;;;;;;;10.60;5.20;;;28.50;99.90;;;;;;5229455;28;20025;-75
2022/06/14 14:26:37;;;;;;;7.00;4.25;;;28.50;99.90;;;;;;5228288;28;20017;-74
2022/06/14 14:29:47;;;;;;;5.20;4.70;;;28.40;99.90;;;;;;5228108;28;20033;-75
2022/06/14 14:32:32;;;;;;;6.47;5.00;;;28.40;99.90;;;;;;5227098;28;20120;-75
2022/06/14 14:35:24;;;;;;;5.90;4.60;;;28.10;99.90;;;;;;5223273;28;20052;-74